Leeper, PA (16233)

12:14 AM EDT on October 22, 2014 (GMT -0400)
Penn Oaks Campground | Change Station
CLOSE
Current Station
Personal Weather Station
Location: Leeper, PA
Elevation: 1621 ft
Nearby Weather Stations

Elev 1621 ft 41.37 °N, 79.29 °W | Updated 13 seconds ago

Overcast
Overcast
47.1 °F
Feels Like 47 °F
N
0.0
Wind Variable Wind from West
Gusts 1.0 mph

Today
High -- | Low -- °F
--% Chance of Precip.
Yesterday
High -- | Low -- °F
Precip. -- in
7:36 AM 6:25 PM
Waning Crescent, 3% visible
Pressure 30.00 in
Visibility 10.0 miles
Clouds Overcast 1200 ft
Windchill 47 °F
Dew Point 47 °F
Humidity 98%
Rainfall 0.01 in
Snow Depth Not available.
UV 0 out of 12
Pollen .30 out of 12
Ozone Good
PM2.5 Good
Flu Activity Sporadic
METAR KDUJ 220353Z AUTO 36006KT 10SM OVC012 08/08 A2999 RMK AO2 RAB0255E12 SLP158 P0001 T00830078

More Conditions Fewer Conditions

Pressure 30.00 in
Visibility 10.0 miles
Clouds Overcast 1200 ft
Windchill 47 °F
Dew Point 47 °F
Humidity 98%
Rainfall 0.01 in
Snow Depth Not available.
UV 0 out of 12
Pollen .30 out of 12
Ozone Good
PM2.5 Good
Flu Activity Sporadic
METAR KDUJ 220353Z AUTO 36006KT 10SM OVC012 08/08 A2999 RMK AO2 RAB0255E12 SLP158 P0001 T00830078

More Conditions Fewer Conditions

10-Day Weather Forecast

Almanac

Astronomy

Oct. 22, 2014 Rise Set
Actual Time 7:36 AM EDT 6:25 PM EDT
Civil Twilight 7:08 AM EDT 6:53 PM EDT
Nautical Twilight 6:36 AM EDT 7:26 PM EDT
Astronomical Twilight 6:04 AM EDT 7:58 PM EDT
Moon 6:15 AM EDT 5:52 PM EDT
Length of Visible Light 11h 45m
Length of Day
10h 48m
Tomorrow will be 2m 35s shorter.
Waning Crescent, 3% of the Moon is Illuminated
Today
Waning Crescent
Oct 23
New
Oct 30
First Quarter
Nov 6
Full
Nov 14
Last Quarter

Yesterday's Extremes

State Highs State Lows

Community

WunderPhotos

Upload Photos

1,763,879 photos uploaded!

Nearby

Air Quality

  Air Quality AQ Index Pollutant
Yesterday Good
PM2.5
Yesterday Good
OZONE
Current Good
PM2.5
Current Good
OZONE
Tuesday Good
PM2.5
Wednesday Good
PM2.5
Thursday Good
PM2.5

Snow Depth

Station Depth Elevation
No new snow has been reported.

Earthquake Activity

City Distance Mag. Time & Date
No recent earthquake activity has been reported nearby.
Minimum magnitude displayed is 2.5.

Coastal Water Temperatures

Place Temperature
No Stations Reporting

Nearby Weather Stations